sensor_id;sensor_type;location;lat;lon;timestamp;temperature;humidity
1546;DHT22;766;51.502;9.752;2022-11-27T00:01:40;4.60;99.90
1546;DHT22;766;51.502;9.752;2022-11-27T00:04:10;4.70;99.90
1546;DHT22;766;51.502;9.752;2022-11-27T00:06:41;4.70;99.90
1546;DHT22;766;51.502;9.752;2022-11-27T00:09:13;4.70;99.90
1546;DHT22;766;51.502;9.752;2022-11-27T00:11:43;4.70;99.90
1546;DHT22;766;51.502;9.752;2022-11-27T00:14:14;4.50;99.90
1546;DHT22;766;51.502;9.752;2022-11-27T00:16:43;4.60;99.90
1546;DHT22;766;51.502;9.752;2022-11-27T00:19:13;4.60;99.90
1546;DHT22;766;51.502;9.752;2022-11-27T00:21:42;4.60;99.90
1546;DHT22;766;51.502;9.752;2022-11-27T00:24:14;4.50;99.90
1546;DHT22;766;51.502;9.752;2022-11-27T00:26:43;4.50;99.90
1546;DHT22;766;51.502;9.752;2022-11-27T00:29:12;4.70;99.90
1546;DHT22;766;51.502;9.752;2022-11-27T00:31:41;4.60;99.90
1546;DHT22;766;51.502;9.752;2022-11-27T00:34:11;4.70;99.90
1546;DHT22;766;51.502;9.752;2022-11-27T00:36:39;4.60;99.90
1546;DHT22;766;51.502;9.752;2022-11-27T00:39:17;4.60;99.90
1546;DHT22;766;51.502;9.752;2022-11-27T00:41:47;4.50;99.90
1546;DHT22;766;51.502;9.752;2022-11-27T00:44:15;4.50;99.90
1546;DHT22;766;51.502;9.752;2022-11-27T00:46:44;4.40;99.90
1546;DHT22;766;51.502;9.752;2022-11-27T00:49:13;4.40;99.90
1546;DHT22;766;51.502;9.752;2022-11-27T00:51:42;4.50;99.90
1546;DHT22;766;51.502;9.752;2022-11-27T00:54:11;4.40;99.90
1546;DHT22;766;51.502;9.752;2022-11-27T00:56:42;4.50;99.90
1546;DHT22;766;51.502;9.752;2022-11-27T00:59:11;4.50;99.90
1546;DHT22;766;51.502;9.752;2022-11-27T01:01:42;4.40;99.90
1546;DHT22;766;51.502;9.752;2022-11-27T01:04:14;4.40;99.90
1546;DHT22;766;51.502;9.752;2022-11-27T01:06:43;4.40;99.90
1546;DHT22;766;51.502;9.752;2022-11-27T01:09:14;4.40;99.90
1546;DHT22;766;51.502;9.752;2022-11-27T01:11:46;4.40;99.90
1546;DHT22;766;51.502;9.752;2022-11-27T01:14:16;4.40;99.90
1546;DHT22;766;51.502;9.752;2022-11-27T01:16:45;4.30;99.90
1546;DHT22;766;51.502;9.752;2022-11-27T01:19:14;4.30;99.90
1546;DHT22;766;51.502;9.752;2022-11-27T01:21:44;4.30;99.90
1546;DHT22;766;51.502;9.752;2022-11-27T01:24:14;4.10;99.90
1546;DHT22;766;51.502;9.752;2022-11-27T01:26:43;4.20;99.90
1546;DHT22;766;51.502;9.752;2022-11-27T01:29:15;4.10;99.90
1546;DHT22;766;51.502;9.752;2022-11-27T01:31:43;4.10;99.90
1546;DHT22;766;51.502;9.752;2022-11-27T01:34:14;4.10;99.90
1546;DHT22;766;51.502;9.752;2022-11-27T01:36:45;4.10;99.90
1546;DHT22;766;51.502;9.752;2022-11-27T01:39:20;4.10;99.90
1546;DHT22;766;51.502;9.752;2022-11-27T01:41:52;4.10;99.90
1546;DHT22;766;51.502;9.752;2022-11-27T01:47:43;4.20;99.90
1546;DHT22;766;51.502;9.752;2022-11-27T01:50:16;4.00;99.90
1546;DHT22;766;51.502;9.752;2022-11-27T01:52:48;4.00;99.90
1546;DHT22;766;51.502;9.752;2022-11-27T01:55:21;4.00;99.90
1546;DHT22;766;51.502;9.752;2022-11-27T01:57:52;4.00;99.90
1546;DHT22;766;51.502;9.752;2022-11-27T02:00:23;4.00;99.90
1546;DHT22;766;51.502;9.752;2022-11-27T02:02:53;4.00;99.90
1546;DHT22;766;51.502;9.752;2022-11-27T02:05:24;4.00;99.90
1546;DHT22;766;51.502;9.752;2022-11-27T02:07:56;4.10;99.90
1546;DHT22;766;51.502;9.752;2022-11-27T02:10:34;4.10;99.90
1546;DHT22;766;51.502;9.752;2022-11-27T02:13:10;3.90;99.90
1546;DHT22;766;51.502;9.752;2022-11-27T02:15:45;3.90;99.90
1546;DHT22;766;51.502;9.752;2022-11-27T02:18:20;3.90;99.90
1546;DHT22;766;51.502;9.752;2022-11-27T02:20:54;3.90;99.90
1546;DHT22;766;51.502;9.752;2022-11-27T02:23:52;3.90;99.90
1546;DHT22;766;51.502;9.752;2022-11-27T02:29:22;3.90;99.90
1546;DHT22;766;51.502;9.752;2022-11-27T02:31:57;3.90;99.90
1546;DHT22;766;51.502;9.752;2022-11-27T02:34:34;3.90;99.90
1546;DHT22;766;51.502;9.752;2022-11-27T02:37:08;3.90;99.90
1546;DHT22;766;51.502;9.752;2022-11-27T02:39:46;4.00;99.90
1546;DHT22;766;51.502;9.752;2022-11-27T02:42:19;3.90;99.90
1546;DHT22;766;51.502;9.752;2022-11-27T02:44:56;3.90;99.90
1546;DHT22;766;51.502;9.752;2022-11-27T02:47:26;3.90;99.90
1546;DHT22;766;51.502;9.752;2022-11-27T02:49:58;4.00;99.90
1546;DHT22;766;51.502;9.752;2022-11-27T02:52:29;3.90;99.90
1546;DHT22;766;51.502;9.752;2022-11-27T02:55:04;3.90;99.90
1546;DHT22;766;51.502;9.752;2022-11-27T02:57:36;3.80;99.90
1546;DHT22;766;51.502;9.752;2022-11-27T03:00:09;3.90;99.90
1546;DHT22;766;51.502;9.752;2022-11-27T03:02:42;3.70;99.90
1546;DHT22;766;51.502;9.752;2022-11-27T03:05:15;3.60;99.90
1546;DHT22;766;51.502;9.752;2022-11-27T03:07:48;3.60;99.90
1546;DHT22;766;51.502;9.752;2022-11-27T03:10:21;3.40;99.90
1546;DHT22;766;51.502;9.752;2022-11-27T03:12:52;3.40;99.90
1546;DHT22;766;51.502;9.752;2022-11-27T03:15:23;3.40;99.90
1546;DHT22;766;51.502;9.752;2022-11-27T03:17:55;3.30;99.90
1546;DHT22;766;51.502;9.752;2022-11-27T03:20:32;3.10;99.90
1546;DHT22;766;51.502;9.752;2022-11-27T03:23:04;3.10;99.90
1546;DHT22;766;51.502;9.752;2022-11-27T03:25:35;3.00;99.90
1546;DHT22;766;51.502;9.752;2022-11-27T03:28:07;2.80;99.90
1546;DHT22;766;51.502;9.752;2022-11-27T03:30:39;2.60;99.90
1546;DHT22;766;51.502;9.752;2022-11-27T03:33:10;2.70;99.90
1546;DHT22;766;51.502;9.752;2022-11-27T03:35:39;2.70;99.90
1546;DHT22;766;51.502;9.752;2022-11-27T03:38:08;2.60;99.90
1546;DHT22;766;51.502;9.752;2022-11-27T03:40:43;2.70;99.90
1546;DHT22;766;51.502;9.752;2022-11-27T03:43:17;2.80;99.90
1546;DHT22;766;51.502;9.752;2022-11-27T03:45:51;2.90;99.90
1546;DHT22;766;51.502;9.752;2022-11-27T03:48:30;2.90;99.90
1546;DHT22;766;51.502;9.752;2022-11-27T03:51:06;2.90;99.90
1546;DHT22;766;51.502;9.752;2022-11-27T03:53:43;2.80;99.90
1546;DHT22;766;51.502;9.752;2022-11-27T03:56:23;2.70;99.90
1546;DHT22;766;51.502;9.752;2022-11-27T03:58:59;2.50;99.90
1546;DHT22;766;51.502;9.752;2022-11-27T04:01:30;2.40;99.90
1546;DHT22;766;51.502;9.752;2022-11-27T04:03:59;2.40;99.90
1546;DHT22;766;51.502;9.752;2022-11-27T04:06:28;2.40;99.90
1546;DHT22;766;51.502;9.752;2022-11-27T04:08:57;2.50;99.90
1546;DHT22;766;51.502;9.752;2022-11-27T04:11:25;2.50;99.90
1546;DHT22;766;51.502;9.752;2022-11-27T04:13:54;2.70;99.90
1546;DHT22;766;51.502;9.752;2022-11-27T04:16:22;2.80;99.90
1546;DHT22;766;51.502;9.752;2022-11-27T04:18:52;2.90;99.90
1546;DHT22;766;51.502;9.752;2022-11-27T04:21:22;2.80;99.90
1546;DHT22;766;51.502;9.752;2022-11-27T04:23:50;2.70;99.90
1546;DHT22;766;51.502;9.752;2022-11-27T04:26:19;2.80;99.90
1546;DHT22;766;51.502;9.752;2022-11-27T04:28:48;2.70;99.90
1546;DHT22;766;51.502;9.752;2022-11-27T04:31:16;2.80;99.90
1546;DHT22;766;51.502;9.752;2022-11-27T04:33:44;2.80;99.90
1546;DHT22;766;51.502;9.752;2022-11-27T04:36:14;2.90;99.90
1546;DHT22;766;51.502;9.752;2022-11-27T04:38:44;2.80;99.90
1546;DHT22;766;51.502;9.752;2022-11-27T04:41:13;2.90;99.90
1546;DHT22;766;51.502;9.752;2022-11-27T04:43:43;2.80;99.90
1546;DHT22;766;51.502;9.752;2022-11-27T04:46:12;2.80;99.90
1546;DHT22;766;51.502;9.752;2022-11-27T04:48:41;2.80;99.90
1546;DHT22;766;51.502;9.752;2022-11-27T04:51:09;2.80;99.90
1546;DHT22;766;51.502;9.752;2022-11-27T04:53:39;2.70;99.90
1546;DHT22;766;51.502;9.752;2022-11-27T04:56:08;2.70;99.90
1546;DHT22;766;51.502;9.752;2022-11-27T04:58:37;2.70;99.90
1546;DHT22;766;51.502;9.752;2022-11-27T05:01:06;2.70;99.90
1546;DHT22;766;51.502;9.752;2022-11-27T05:03:35;2.70;99.90
1546;DHT22;766;51.502;9.752;2022-11-27T05:06:04;2.80;99.90
1546;DHT22;766;51.502;9.752;2022-11-27T05:08:33;2.70;99.90
1546;DHT22;766;51.502;9.752;2022-11-27T05:11:04;2.90;99.90
1546;DHT22;766;51.502;9.752;2022-11-27T05:13:33;2.80;99.90
1546;DHT22;766;51.502;9.752;2022-11-27T05:16:02;2.60;99.90
1546;DHT22;766;51.502;9.752;2022-11-27T05:18:31;2.60;99.90
1546;DHT22;766;51.502;9.752;2022-11-27T05:21:05;2.60;99.90
1546;DHT22;766;51.502;9.752;2022-11-27T05:23:34;2.70;99.90
1546;DHT22;766;51.502;9.752;2022-11-27T05:26:04;2.80;99.90
1546;DHT22;766;51.502;9.752;2022-11-27T05:28:33;2.70;99.90
1546;DHT22;766;51.502;9.752;2022-11-27T05:31:02;2.80;99.90
1546;DHT22;766;51.502;9.752;2022-11-27T05:33:30;2.60;99.90
1546;DHT22;766;51.502;9.752;2022-11-27T05:36:02;2.40;99.90
1546;DHT22;766;51.502;9.752;2022-11-27T05:38:30;2.30;99.90
1546;DHT22;766;51.502;9.752;2022-11-27T05:40:59;2.40;99.90
1546;DHT22;766;51.502;9.752;2022-11-27T05:43:30;2.50;99.90
1546;DHT22;766;51.502;9.752;2022-11-27T05:45:58;2.60;99.90
1546;DHT22;766;51.502;9.752;2022-11-27T05:48:27;2.50;99.90
1546;DHT22;766;51.502;9.752;2022-11-27T05:50:55;2.40;99.90
1546;DHT22;766;51.502;9.752;2022-11-27T05:53:24;2.20;99.90
1546;DHT22;766;51.502;9.752;2022-11-27T05:55:52;2.30;99.90
1546;DHT22;766;51.502;9.752;2022-11-27T05:58:20;2.20;99.90
1546;DHT22;766;51.502;9.752;2022-11-27T06:00:52;2.30;99.90
1546;DHT22;766;51.502;9.752;2022-11-27T06:03:20;2.30;99.90
1546;DHT22;766;51.502;9.752;2022-11-27T06:05:51;2.20;99.90
1546;DHT22;766;51.502;9.752;2022-11-27T06:08:20;2.20;99.90
1546;DHT22;766;51.502;9.752;2022-11-27T06:10:49;2.20;99.90
1546;DHT22;766;51.502;9.752;2022-11-27T06:13:18;2.40;99.90
1546;DHT22;766;51.502;9.752;2022-11-27T06:15:46;2.20;99.90
1546;DHT22;766;51.502;9.752;2022-11-27T06:18:16;2.30;99.90
1546;DHT22;766;51.502;9.752;2022-11-27T06:20:44;2.40;99.90
1546;DHT22;766;51.502;9.752;2022-11-27T06:23:18;2.50;99.90
1546;DHT22;766;51.502;9.752;2022-11-27T06:25:48;2.50;99.90
1546;DHT22;766;51.502;9.752;2022-11-27T06:28:18;2.40;99.90
1546;DHT22;766;51.502;9.752;2022-11-27T06:30:49;2.30;99.90
1546;DHT22;766;51.502;9.752;2022-11-27T06:33:19;2.30;99.90
1546;DHT22;766;51.502;9.752;2022-11-27T06:35:47;2.30;99.90
1546;DHT22;766;51.502;9.752;2022-11-27T06:38:16;2.30;99.90
1546;DHT22;766;51.502;9.752;2022-11-27T06:40:44;2.20;99.90
1546;DHT22;766;51.502;9.752;2022-11-27T06:43:13;2.30;99.90
1546;DHT22;766;51.502;9.752;2022-11-27T06:45:42;2.40;99.90
1546;DHT22;766;51.502;9.752;2022-11-27T06:48:11;2.30;99.90
1546;DHT22;766;51.502;9.752;2022-11-27T06:50:41;2.50;99.90
1546;DHT22;766;51.502;9.752;2022-11-27T06:53:10;2.40;99.90
1546;DHT22;766;51.502;9.752;2022-11-27T06:55:39;2.40;99.90
1546;DHT22;766;51.502;9.752;2022-11-27T06:58:07;2.30;99.90
1546;DHT22;766;51.502;9.752;2022-11-27T07:00:38;2.40;99.90
1546;DHT22;766;51.502;9.752;2022-11-27T07:03:07;2.40;99.90
1546;DHT22;766;51.502;9.752;2022-11-27T07:05:37;2.40;99.90
1546;DHT22;766;51.502;9.752;2022-11-27T07:08:06;2.40;99.90
1546;DHT22;766;51.502;9.752;2022-11-27T07:10:35;2.60;99.90
1546;DHT22;766;51.502;9.752;2022-11-27T07:13:03;2.50;99.90
1546;DHT22;766;51.502;9.752;2022-11-27T07:15:32;2.40;99.90
1546;DHT22;766;51.502;9.752;2022-11-27T07:18:01;2.30;99.90
1546;DHT22;766;51.502;9.752;2022-11-27T07:20:29;2.40;99.90
1546;DHT22;766;51.502;9.752;2022-11-27T07:22:57;2.30;99.90
1546;DHT22;766;51.502;9.752;2022-11-27T07:25:27;2.30;99.90
1546;DHT22;766;51.502;9.752;2022-11-27T07:27:56;2.30;99.90
1546;DHT22;766;51.502;9.752;2022-11-27T07:30:26;2.30;99.90
1546;DHT22;766;51.502;9.752;2022-11-27T07:32:55;2.20;99.90
1546;DHT22;766;51.502;9.752;2022-11-27T07:35:23;2.30;99.90
1546;DHT22;766;51.502;9.752;2022-11-27T07:37:52;2.40;99.90
1546;DHT22;766;51.502;9.752;2022-11-27T07:40:22;2.40;99.90
1546;DHT22;766;51.502;9.752;2022-11-27T07:42:54;2.40;99.90
1546;DHT22;766;51.502;9.752;2022-11-27T07:45:22;2.40;99.90
1546;DHT22;766;51.502;9.752;2022-11-27T07:47:51;2.40;99.90
1546;DHT22;766;51.502;9.752;2022-11-27T07:50:21;2.40;99.90
1546;DHT22;766;51.502;9.752;2022-11-27T07:52:49;2.60;99.90
1546;DHT22;766;51.502;9.752;2022-11-27T07:55:17;2.60;99.90
1546;DHT22;766;51.502;9.752;2022-11-27T07:57:47;2.60;99.90
1546;DHT22;766;51.502;9.752;2022-11-27T08:00:17;2.70;99.90
1546;DHT22;766;51.502;9.752;2022-11-27T08:02:46;2.80;99.90
1546;DHT22;766;51.502;9.752;2022-11-27T08:05:16;2.90;99.90
1546;DHT22;766;51.502;9.752;2022-11-27T08:07:47;3.00;99.90
1546;DHT22;766;51.502;9.752;2022-11-27T08:10:16;3.00;99.90
1546;DHT22;766;51.502;9.752;2022-11-27T08:12:44;3.00;99.90
1546;DHT22;766;51.502;9.752;2022-11-27T08:15:13;3.10;99.90
1546;DHT22;766;51.502;9.752;2022-11-27T08:17:43;3.00;99.90
1546;DHT22;766;51.502;9.752;2022-11-27T08:20:13;3.00;99.90
1546;DHT22;766;51.502;9.752;2022-11-27T08:22:42;3.10;99.90
1546;DHT22;766;51.502;9.752;2022-11-27T08:25:12;3.00;99.90
1546;DHT22;766;51.502;9.752;2022-11-27T08:27:41;3.10;99.90
1546;DHT22;766;51.502;9.752;2022-11-27T08:30:10;3.30;99.90
1546;DHT22;766;51.502;9.752;2022-11-27T08:32:41;3.40;99.90
1546;DHT22;766;51.502;9.752;2022-11-27T08:35:11;3.30;99.90
1546;DHT22;766;51.502;9.752;2022-11-27T08:37:39;3.30;99.90
1546;DHT22;766;51.502;9.752;2022-11-27T08:40:08;3.40;99.90
1546;DHT22;766;51.502;9.752;2022-11-27T08:42:39;3.70;99.90
1546;DHT22;766;51.502;9.752;2022-11-27T08:45:08;3.80;99.90
1546;DHT22;766;51.502;9.752;2022-11-27T08:47:40;3.80;99.90
1546;DHT22;766;51.502;9.752;2022-11-27T08:50:11;4.10;99.90
1546;DHT22;766;51.502;9.752;2022-11-27T08:52:40;4.30;99.90
1546;DHT22;766;51.502;9.752;2022-11-27T08:55:09;4.50;99.90
1546;DHT22;766;51.502;9.752;2022-11-27T08:57:37;4.60;99.90
1546;DHT22;766;51.502;9.752;2022-11-27T09:00:07;4.80;99.90
1546;DHT22;766;51.502;9.752;2022-11-27T09:02:38;4.60;99.90
1546;DHT22;766;51.502;9.752;2022-11-27T09:05:08;4.60;99.90
1546;DHT22;766;51.502;9.752;2022-11-27T09:07:43;4.80;99.90
1546;DHT22;766;51.502;9.752;2022-11-27T09:10:13;4.80;99.90
1546;DHT22;766;51.502;9.752;2022-11-27T09:12:41;4.90;99.90
1546;DHT22;766;51.502;9.752;2022-11-27T09:15:11;5.10;99.90
1546;DHT22;766;51.502;9.752;2022-11-27T09:17:39;5.30;99.90
1546;DHT22;766;51.502;9.752;2022-11-27T09:20:09;5.40;99.90
1546;DHT22;766;51.502;9.752;2022-11-27T09:22:40;5.50;99.90
1546;DHT22;766;51.502;9.752;2022-11-27T09:25:11;5.70;99.90
1546;DHT22;766;51.502;9.752;2022-11-27T09:27:39;5.80;99.90
1546;DHT22;766;51.502;9.752;2022-11-27T09:30:08;6.10;99.90
1546;DHT22;766;51.502;9.752;2022-11-27T09:32:36;6.10;99.90
1546;DHT22;766;51.502;9.752;2022-11-27T09:35:05;6.10;99.90
1546;DHT22;766;51.502;9.752;2022-11-27T09:37:34;6.00;99.90
1546;DHT22;766;51.502;9.752;2022-11-27T09:40:04;6.10;99.90
1546;DHT22;766;51.502;9.752;2022-11-27T09:42:38;6.10;99.90
1546;DHT22;766;51.502;9.752;2022-11-27T09:45:12;6.20;99.90
1546;DHT22;766;51.502;9.752;2022-11-27T09:47:47;6.30;99.90
1546;DHT22;766;51.502;9.752;2022-11-27T09:50:21;6.40;99.90
1546;DHT22;766;51.502;9.752;2022-11-27T09:52:53;6.60;99.90
1546;DHT22;766;51.502;9.752;2022-11-27T09:55:31;6.50;99.90
1546;DHT22;766;51.502;9.752;2022-11-27T09:58:09;6.50;99.90
1546;DHT22;766;51.502;9.752;2022-11-27T10:00:39;6.60;99.90
1546;DHT22;766;51.502;9.752;2022-11-27T10:03:12;6.60;99.90
1546;DHT22;766;51.502;9.752;2022-11-27T10:05:47;6.60;99.90
1546;DHT22;766;51.502;9.752;2022-11-27T10:08:31;6.40;99.90
1546;DHT22;766;51.502;9.752;2022-11-27T10:11:12;6.20;99.90
1546;DHT22;766;51.502;9.752;2022-11-27T10:14:09;6.40;99.90
1546;DHT22;766;51.502;9.752;2022-11-27T10:16:47;6.60;99.90
1546;DHT22;766;51.502;9.752;2022-11-27T10:19:27;7.00;99.90
1546;DHT22;766;51.502;9.752;2022-11-27T10:22:03;7.20;99.90
1546;DHT22;766;51.502;9.752;2022-11-27T10:24:40;7.20;99.90
1546;DHT22;766;51.502;9.752;2022-11-27T10:27:18;7.10;99.90
1546;DHT22;766;51.502;9.752;2022-11-27T10:29:54;6.90;99.90
1546;DHT22;766;51.502;9.752;2022-11-27T10:32:25;6.90;99.90
1546;DHT22;766;51.502;9.752;2022-11-27T10:35:18;7.00;99.90
1546;DHT22;766;51.502;9.752;2022-11-27T10:37:50;6.70;99.90
1546;DHT22;766;51.502;9.752;2022-11-27T10:40:22;6.70;99.90
1546;DHT22;766;51.502;9.752;2022-11-27T10:42:58;6.70;99.90
1546;DHT22;766;51.502;9.752;2022-11-27T10:45:38;6.60;99.90
1546;DHT22;766;51.502;9.752;2022-11-27T10:48:11;6.70;99.90
1546;DHT22;766;51.502;9.752;2022-11-27T10:50:43;6.70;99.90
1546;DHT22;766;51.502;9.752;2022-11-27T10:53:17;6.70;99.90
1546;DHT22;766;51.502;9.752;2022-11-27T10:58:48;6.80;99.90
1546;DHT22;766;51.502;9.752;2022-11-27T11:01:20;6.80;99.90
1546;DHT22;766;51.502;9.752;2022-11-27T11:03:49;6.80;99.90
1546;DHT22;766;51.502;9.752;2022-11-27T11:06:20;6.90;99.90
1546;DHT22;766;51.502;9.752;2022-11-27T11:09:00;6.90;99.90
1546;DHT22;766;51.502;9.752;2022-11-27T11:11:31;6.90;99.90
1546;DHT22;766;51.502;9.752;2022-11-27T11:13:59;6.90;99.90
1546;DHT22;766;51.502;9.752;2022-11-27T11:16:41;7.00;99.90
1546;DHT22;766;51.502;9.752;2022-11-27T11:19:21;7.10;99.90
1546;DHT22;766;51.502;9.752;2022-11-27T11:21:51;7.10;99.90
1546;DHT22;766;51.502;9.752;2022-11-27T11:24:24;6.90;99.90
1546;DHT22;766;51.502;9.752;2022-11-27T11:26:56;6.80;99.90
1546;DHT22;766;51.502;9.752;2022-11-27T11:29:30;6.70;99.90
1546;DHT22;766;51.502;9.752;2022-11-27T11:32:07;6.90;99.90
1546;DHT22;766;51.502;9.752;2022-11-27T11:34:41;7.00;99.90
1546;DHT22;766;51.502;9.752;2022-11-27T11:37:20;7.00;99.90
1546;DHT22;766;51.502;9.752;2022-11-27T11:39:57;7.00;99.90
1546;DHT22;766;51.502;9.752;2022-11-27T11:42:26;7.10;99.90
1546;DHT22;766;51.502;9.752;2022-11-27T11:45:02;7.00;99.90
1546;DHT22;766;51.502;9.752;2022-11-27T11:47:32;7.00;99.90
1546;DHT22;766;51.502;9.752;2022-11-27T11:50:04;6.90;99.90
1546;DHT22;766;51.502;9.752;2022-11-27T11:52:44;7.00;99.90
1546;DHT22;766;51.502;9.752;2022-11-27T11:55:18;6.90;99.90
1546;DHT22;766;51.502;9.752;2022-11-27T11:58:10;6.80;99.90
1546;DHT22;766;51.502;9.752;2022-11-27T12:00:46;6.70;99.90
1546;DHT22;766;51.502;9.752;2022-11-27T12:03:55;6.70;99.90
1546;DHT22;766;51.502;9.752;2022-11-27T12:06:35;6.80;99.90
1546;DHT22;766;51.502;9.752;2022-11-27T12:09:26;6.70;99.90
1546;DHT22;766;51.502;9.752;2022-11-27T12:11:59;6.80;99.90
1546;DHT22;766;51.502;9.752;2022-11-27T12:14:39;6.90;99.90
1546;DHT22;766;51.502;9.752;2022-11-27T12:17:18;7.00;99.90
1546;DHT22;766;51.502;9.752;2022-11-27T12:20:12;7.10;99.90
1546;DHT22;766;51.502;9.752;2022-11-27T12:25:44;7.10;99.90
1546;DHT22;766;51.502;9.752;2022-11-27T12:28:27;7.30;99.90
1546;DHT22;766;51.502;9.752;2022-11-27T12:31:02;7.30;99.90
1546;DHT22;766;51.502;9.752;2022-11-27T12:33:55;7.50;99.90
1546;DHT22;766;51.502;9.752;2022-11-27T12:36:39;7.60;99.90
1546;DHT22;766;51.502;9.752;2022-11-27T12:39:19;7.40;99.90
1546;DHT22;766;51.502;9.752;2022-11-27T12:42:12;7.50;99.90
1546;DHT22;766;51.502;9.752;2022-11-27T12:44:53;7.40;99.90
1546;DHT22;766;51.502;9.752;2022-11-27T12:47:27;7.30;99.90
1546;DHT22;766;51.502;9.752;2022-11-27T12:50:12;7.30;99.90
1546;DHT22;766;51.502;9.752;2022-11-27T12:52:47;7.20;99.90
1546;DHT22;766;51.502;9.752;2022-11-27T12:55:21;7.20;99.90
1546;DHT22;766;51.502;9.752;2022-11-27T12:57:55;7.10;99.90
1546;DHT22;766;51.502;9.752;2022-11-27T13:00:27;7.20;99.90
1546;DHT22;766;51.502;9.752;2022-11-27T13:03:01;7.30;99.90
1546;DHT22;766;51.502;9.752;2022-11-27T13:05:39;7.40;99.90
1546;DHT22;766;51.502;9.752;2022-11-27T13:08:14;7.40;99.90
1546;DHT22;766;51.502;9.752;2022-11-27T13:10:48;7.30;99.90
1546;DHT22;766;51.502;9.752;2022-11-27T13:13:23;7.20;99.90
1546;DHT22;766;51.502;9.752;2022-11-27T13:15:57;7.40;99.90
1546;DHT22;766;51.502;9.752;2022-11-27T13:18:32;7.40;99.90
1546;DHT22;766;51.502;9.752;2022-11-27T13:21:08;7.40;99.90
1546;DHT22;766;51.502;9.752;2022-11-27T13:23:39;7.20;99.90
1546;DHT22;766;51.502;9.752;2022-11-27T13:26:13;7.20;99.90
1546;DHT22;766;51.502;9.752;2022-11-27T13:28:50;7.10;99.90
1546;DHT22;766;51.502;9.752;2022-11-27T13:31:22;7.00;99.90
1546;DHT22;766;51.502;9.752;2022-11-27T13:33:57;7.00;99.90
1546;DHT22;766;51.502;9.752;2022-11-27T13:36:40;7.00;99.90
1546;DHT22;766;51.502;9.752;2022-11-27T13:39:21;7.00;99.90
1546;DHT22;766;51.502;9.752;2022-11-27T13:41:59;6.80;99.90
1546;DHT22;766;51.502;9.752;2022-11-27T13:44:30;6.80;99.90
1546;DHT22;766;51.502;9.752;2022-11-27T13:47:05;7.00;99.90
1546;DHT22;766;51.502;9.752;2022-11-27T13:49:35;6.90;99.90
1546;DHT22;766;51.502;9.752;2022-11-27T13:52:07;6.80;99.90
1546;DHT22;766;51.502;9.752;2022-11-27T13:54:38;6.70;99.90
1546;DHT22;766;51.502;9.752;2022-11-27T13:57:12;6.80;99.90
1546;DHT22;766;51.502;9.752;2022-11-27T13:59:54;6.80;99.90
1546;DHT22;766;51.502;9.752;2022-11-27T14:02:24;6.90;99.90
1546;DHT22;766;51.502;9.752;2022-11-27T14:04:54;6.80;99.90
1546;DHT22;766;51.502;9.752;2022-11-27T14:07:34;6.70;99.90
1546;DHT22;766;51.502;9.752;2022-11-27T14:10:12;6.60;99.90
1546;DHT22;766;51.502;9.752;2022-11-27T14:12:51;6.70;99.90
1546;DHT22;766;51.502;9.752;2022-11-27T14:15:22;6.70;99.90
1546;DHT22;766;51.502;9.752;2022-11-27T14:18:02;6.60;99.90
1546;DHT22;766;51.502;9.752;2022-11-27T14:20:32;6.70;99.90
1546;DHT22;766;51.502;9.752;2022-11-27T14:23:02;6.70;99.90
1546;DHT22;766;51.502;9.752;2022-11-27T14:25:40;6.70;99.90
1546;DHT22;766;51.502;9.752;2022-11-27T14:28:13;6.80;99.90
1546;DHT22;766;51.502;9.752;2022-11-27T14:30:46;6.60;99.90
1546;DHT22;766;51.502;9.752;2022-11-27T14:33:19;6.40;99.90
1546;DHT22;766;51.502;9.752;2022-11-27T14:35:48;6.30;99.90
1546;DHT22;766;51.502;9.752;2022-11-27T14:38:17;6.20;99.90
1546;DHT22;766;51.502;9.752;2022-11-27T14:40:48;6.10;99.90
1546;DHT22;766;51.502;9.752;2022-11-27T14:43:22;6.10;99.90
1546;DHT22;766;51.502;9.752;2022-11-27T14:45:53;6.00;99.90
1546;DHT22;766;51.502;9.752;2022-11-27T14:48:25;5.90;99.90
1546;DHT22;766;51.502;9.752;2022-11-27T14:50:54;5.90;99.90
1546;DHT22;766;51.502;9.752;2022-11-27T14:53:26;5.80;99.90
1546;DHT22;766;51.502;9.752;2022-11-27T14:55:57;5.90;99.90
1546;DHT22;766;51.502;9.752;2022-11-27T14:58:27;5.90;99.90
1546;DHT22;766;51.502;9.752;2022-11-27T15:00:58;5.80;99.90
1546;DHT22;766;51.502;9.752;2022-11-27T15:03:27;5.70;99.90
1546;DHT22;766;51.502;9.752;2022-11-27T15:05:57;5.70;99.90
1546;DHT22;766;51.502;9.752;2022-11-27T15:08:32;5.50;99.90
1546;DHT22;766;51.502;9.752;2022-11-27T15:11:04;5.60;99.90
1546;DHT22;766;51.502;9.752;2022-11-27T15:13:33;5.40;99.90
1546;DHT22;766;51.502;9.752;2022-11-27T15:16:06;5.50;99.90
1546;DHT22;766;51.502;9.752;2022-11-27T15:18:41;5.40;99.90
1546;DHT22;766;51.502;9.752;2022-11-27T15:21:18;5.40;99.90
1546;DHT22;766;51.502;9.752;2022-11-27T15:23:50;5.30;99.90
1546;DHT22;766;51.502;9.752;2022-11-27T15:26:31;5.40;99.90
1546;DHT22;766;51.502;9.752;2022-11-27T15:29:01;5.30;99.90
1546;DHT22;766;51.502;9.752;2022-11-27T15:31:32;5.30;99.90
1546;DHT22;766;51.502;9.752;2022-11-27T15:34:04;5.30;99.90
1546;DHT22;766;51.502;9.752;2022-11-27T15:36:36;5.30;99.90
1546;DHT22;766;51.502;9.752;2022-11-27T15:39:18;5.30;99.90
1546;DHT22;766;51.502;9.752;2022-11-27T15:41:57;5.30;99.90
1546;DHT22;766;51.502;9.752;2022-11-27T15:44:27;5.40;99.90
1546;DHT22;766;51.502;9.752;2022-11-27T15:46:58;5.30;99.90
1546;DHT22;766;51.502;9.752;2022-11-27T15:49:27;5.20;99.90
1546;DHT22;766;51.502;9.752;2022-11-27T15:51:56;5.20;99.90
1546;DHT22;766;51.502;9.752;2022-11-27T15:54:24;5.10;99.90
1546;DHT22;766;51.502;9.752;2022-11-27T15:56:53;5.10;99.90
1546;DHT22;766;51.502;9.752;2022-11-27T15:59:23;5.20;99.90
1546;DHT22;766;51.502;9.752;2022-11-27T16:01:54;5.20;99.90
1546;DHT22;766;51.502;9.752;2022-11-27T16:04:23;5.20;99.90
1546;DHT22;766;51.502;9.752;2022-11-27T16:06:52;5.10;99.90
1546;DHT22;766;51.502;9.752;2022-11-27T16:09:20;5.10;99.90
1546;DHT22;766;51.502;9.752;2022-11-27T16:11:49;5.20;99.90
1546;DHT22;766;51.502;9.752;2022-11-27T16:14:17;5.20;99.90
1546;DHT22;766;51.502;9.752;2022-11-27T16:16:46;5.10;99.90
1546;DHT22;766;51.502;9.752;2022-11-27T16:19:16;5.00;99.90
1546;DHT22;766;51.502;9.752;2022-11-27T16:21:44;5.00;99.90
1546;DHT22;766;51.502;9.752;2022-11-27T16:24:13;4.90;99.90
1546;DHT22;766;51.502;9.752;2022-11-27T16:26:42;4.90;99.90
1546;DHT22;766;51.502;9.752;2022-11-27T16:29:11;4.90;99.90
1546;DHT22;766;51.502;9.752;2022-11-27T16:31:39;5.00;99.90
1546;DHT22;766;51.502;9.752;2022-11-27T16:34:09;5.10;99.90
1546;DHT22;766;51.502;9.752;2022-11-27T16:36:39;5.10;99.90
1546;DHT22;766;51.502;9.752;2022-11-27T16:39:09;5.00;99.90
1546;DHT22;766;51.502;9.752;2022-11-27T16:41:37;5.00;99.90
1546;DHT22;766;51.502;9.752;2022-11-27T16:44:09;5.20;99.90
1546;DHT22;766;51.502;9.752;2022-11-27T16:46:39;5.30;99.90
1546;DHT22;766;51.502;9.752;2022-11-27T16:49:11;5.20;99.90
1546;DHT22;766;51.502;9.752;2022-11-27T16:51:40;5.10;99.90
1546;DHT22;766;51.502;9.752;2022-11-27T16:54:11;5.00;99.90
1546;DHT22;766;51.502;9.752;2022-11-27T16:56:40;5.10;99.90
1546;DHT22;766;51.502;9.752;2022-11-27T16:59:11;5.20;99.90
1546;DHT22;766;51.502;9.752;2022-11-27T17:01:40;5.20;99.90
1546;DHT22;766;51.502;9.752;2022-11-27T17:04:14;5.40;99.90
1546;DHT22;766;51.502;9.752;2022-11-27T17:06:45;5.40;99.90
1546;DHT22;766;51.502;9.752;2022-11-27T17:09:14;5.30;99.90
1546;DHT22;766;51.502;9.752;2022-11-27T17:11:44;5.30;99.90
1546;DHT22;766;51.502;9.752;2022-11-27T17:14:15;5.20;99.90
1546;DHT22;766;51.502;9.752;2022-11-27T17:16:46;5.20;99.90
1546;DHT22;766;51.502;9.752;2022-11-27T17:19:15;5.30;99.90